Aviation Digital Data Service (ADDS)

Output produced by METARs form (1321 UTC 15 November 2018)
found at http://www.aviationweather.gov/metar/data/
 
ESSA 151250Z 20011KT 9999 BKN010 09/07 Q1026 R01L/19//95 R08/19//95 R01R/19//95 NOSIG
TAF ESSA 151130Z 1512/1612 22008KT 9999 BKN015 
     PROB40 1512/1520 BKN009
       
ESNX 151250Z AUTO 22008KT 9999 BKN076/// 02/M01 Q1014
TAF ESNX 151130Z 1512/1521 19006KT CAVOK
       
ESSD 151250Z 24010KT 9999 OVC010 10/10 Q1024
TAF ESSD 151130Z 1512/1520 22009KT 9999 OVC010 
     TEMPO 1512/1520 BKN006
       
ESSB 151250Z 20007KT 160V220 9999 SCT008 BKN011 09/08 Q1027 R30/19//95
TAF ESSB 151130Z 1512/1521 21006KT 9999 SCT025 
     PROB40 1512/1520 BKN012
       
ESNG 151250Z AUTO 18005KT 150V230 9999 FEW009/// 01/M00 Q1011
TAF ESNG 150830Z 1509/1512 18008KT 9999 BKN007 
     PROB40 1509/1512 SCT007
       
ESMT 151250Z 16006KT 9999 OVC046 11/09 Q1030
TAF ESMT 151058Z 1512/1521 15005KT 9000 BKN040 
     TEMPO 1515/1521 4000 BR BKN008
       
ESUT 151250Z AUTO 15004KT 7000 BR FEW014/// BKN021/// 03/03 Q1014 REDZ
ESGJ 151250Z 22008KT 8000 BR BKN010 09/08 Q1028
TAF ESGJ 151130Z 1512/1521 22010KT 7000 BKN007 
     TEMPO 1512/1521 1400 BR BKN004
       
ESPA 151250Z 20005KT CAVOK 03/01 Q1016
TAF ESPA 151130Z 1512/1521 20007KT CAVOK RMK MIL
       
ESMQ 151250Z 22005KT 190V270 9999 OVC010 10/08 Q1031
TAF ESMQ 151130Z 1512/1521 19008KT 5000 SCT007 BKN015 
     TEMPO 1512/1521 1200 BR BKN003
       
ESIA 151250Z 19004KT 9999 BKN017 10/08 Q1028
TAF ESIA 151130Z 1512/1515 21013KT 9999 SCT006 BKN015 
     TEMPO 1512/1515 4000 DZ BR BKN006 RMK MIL
       
ESOK 151250Z 20008KT 9999 BKN008 10/10 Q1025
TAF ESOK 151130Z 1512/1521 20010KT 2500 BR OVC003 
     TEMPO 1512/1513 5000 
     BECMG 1513/1515 5000 BKN006 
     PROB40 1515/1521 SCT007 BKN015
       
ESNQ 151250Z 22016KT FEW008 SCT084 02/01 Q1008
TAF ESNQ 151130Z 1512/1518 21012KT CAVOK
       
ESNK 151250Z AUTO 36006KT 9000 BKN003/// 02/02 Q1020
TAF ESNK 150530Z 1506/1510 VRB02KT 0200 FZFG VV001 
     PROB40 1506/1510 8000 BCFG FEW001
       
ESMK 151250Z 18007KT 9999 SCT013 11/09 Q1030
TAF ESMK 151058Z 1512/1521 15005KT 9000 SCT015 
     TEMPO 1512/1515 BKN008 
     TEMPO 1515/1521 4000 BR BKN008
       
ESMX 151250Z 18007KT 9999 BKN008 10/09 Q1030
TAF ESMX 151130Z 1512/1521 18009KT 9000 OVC006 
     PROB40 1512/1521 0700 FG VV002
       
ESSP 151250Z 22005KT 9999 SCT013 OVC018 10/09 Q1028
TAF ESSP 151130Z 1512/1521 22006KT 9999 SCT025 
     PROB40 1512/1518 BKN012
       
ESGG 151250Z 20008KT 8000 BR BKN006 08/07 Q1028 R21/19//95
TAF ESGG 151130Z 1512/1612 20010KT 7000 BKN005 
     PROB40 1512/1523 1400 BR OVC004 
     BECMG 1523/1601 4000 BR BKN004 
     BECMG 1609/1611 7000 BKN007
       
ESTL 151250Z 15006KT 9999 SCT013 BKN061 11/09 Q1030
TAF ESTL 151058Z 1512/1516 17005KT 8000 SCT015 
     TEMPO 1512/1516 BKN006
       
ESNL 151250Z AUTO 10003KT 9999 NCD 01/M00 Q1017
ESCF 151250Z 22009KT 9999 SCT022 BKN036 10/08 Q1028
TAF ESCF 151130Z 1512/1521 22010KT 9999 FEW012 BKN030 
     TEMPO 1512/1515 BKN015 
     PROB30 1520/1521 6000 RMK MIL
       
ESKM 151250Z AUTO 23006KT 200V260 9999 OVC013/// 11/09 Q1023
ESOE 151250Z 21010KT 6000 BR OVC008 11/10 Q1026
TAF ESOE 151130Z 1512/1521 20010KT 9999 OVC007 
     PROB40 1512/1514 4000 -DZ BR BKN010 
     TEMPO 1514/1516 BKN011 
     BECMG 1516/1518 SCT020 
     PROB40 1518/1521 BKN008
       
ESNO 151250Z 24005KT 9999 BKN006 05/04 Q1019
TAF ESNO 151130Z 1512/1521 24003KT 9999 BKN003 
     PROB40 1512/1515 CAVOK 
     PROB40 1515/1521 4000 BR SCT004
       
ESUP 151250Z AUTO 21010KT 9999 OVC003/// 01/01 Q1011
ESDF 151250Z 19005KT 9000 BKN007 09/08 Q1031
TAF ESDF 151130Z 1512/1521 20006KT 3000 BR BKN003 
     PROB40 1512/1521 8000 BR OVC009 
     BECMG 1519/1521 0700 FG VV002 RMK MIL
       
ESSL 151250Z 22008KT 190V250 9999 BKN029 11/08 Q1028
TAF COR ESSL 151138Z 1512/1521 22010KT 9999 FEW012 BKN030 
     TEMPO 1512/1515 BKN015 
     PROB30 1520/1521 6000 RMK MIL
       
ESIB 151250Z 21010KT 9000 SCT009 BKN011 11/10 Q1027
TAF ESIB 151130Z 1512/1521 20013KT 9999 BKN010 
     TEMPO 1512/1513 3000 DZ BKN004 
     TEMPO 1513/1521 4000 BR SCT015 RMK MIL
       
ESKN 151250Z 20007KT 9000 -DZ BKN006 BKN011 09/08 Q1028 R26/19//95
TAF AMD ESKN 151252Z 1512/1612 22007KT 9999 BKN006 
     BECMG 1512/1514 BKN015 
     TEMPO 1514/1520 BKN012
       
ESNS 151250Z 24010KT 9999 SCT013 03/01 Q1018
TAF ESNS 151130Z 1512/1521 20010KT 9999 BKN009 
     BECMG 1512/1514 CAVOK
       
ESGR 151250Z AUTO 22009KT 9999 OVC014/// 11/08 Q1027
ESMS 151250Z 16009KT 9000 FEW011 10/08 Q1030
TAF ESMS 151054Z 1512/1612 16008KT 8000 SCT015 
     TEMPO 1515/1518 4000 BR BKN004 
     TEMPO 1518/1606 4000 BR BKN008
       
ESNN 151250Z 31003KT 7000 BR NSC 02/02 Q1021 R16/19//65
TAF ESNN 151130Z 1512/1521 31003KT 0300 FG VV002 
     PROB40 1512/1521 5000 BCFG FEW003
       
ESND 151250Z AUTO 25007KT 220V280 9999 OVC016/// 09/06 Q1020
ESST 151120Z AUTO 16007KT 4700 BR BKN003/// OVC005/// 10/09 Q1024
ESGT 151250Z 19010KT 8000 BKN007 10/09 Q1028
TAF ESGT 151130Z 1512/1521 21009KT 5000 BKN005 
     TEMPO 1512/1521 2000 BR BKN003
       
ESNU 151250Z 23007KT 9999 BKN009 07/05 Q1019 R14/19//60
TAF ESNU 151130Z 1512/1521 21004KT 9999 OVC004 
     PROB40 1512/1515 NSC 
     PROB40 1515/1521 4000 BR SCT004
       
ESCM 151250Z 21009KT 9999 OVC009 09/08 Q1026
TAF ESCM 151125Z 1511/1521 21010KT 9999 BKN010 
     TEMPO 1511/1521 BKN015 RMK MIL
       
ESOW 151250Z 21010KT 9999 BKN009 10/08 Q1026
TAF ESOW 151130Z 1512/1515 20010KT 9999 BKN015 
     TEMPO 1512/1515 BKN009
       
ESPE 151250Z 23006KT 180V270 CAVOK 02/00 Q1014
TAF ESPE 151105Z 1512/1515 22005KT CAVOK RMK MIL
       
ESNV 151250Z AUTO 16005KT 9999 SCT005/// OVC049/// 00/M03 Q1017
ESSV 151250Z 21011KT 9999 OVC007 07/06 Q1031
TAF ESSV 151130Z 1512/1521 22009KT 9999 BKN003 
     PROB40 1512/1521 1400 BR SCT003